Time;durP1;ratioP1;P1;durP2;ratioP2;P2;SDS_P1;SDS_P2;PMS_P1;PMS_P2;Temp;Humidity;BMP_temperature;BMP_pressure;BME280_temperature;BME280_humidity;BME280_pressure;Samples;Min_cycle;Max_cycle;Signal;HPM_P1;HPM_P2
2021/08/05 00:00:40;;;;;;;3.13;2.85;;;20.60;99.90;;;;;;5074617;28;20099;-79
2021/08/05 00:03:06;;;;;;;2.78;2.58;;;20.60;99.90;;;;;;5072384;28;20025;-79
2021/08/05 00:05:31;;;;;;;3.50;2.40;;;20.60;99.90;;;;;;5080095;28;20040;-79
2021/08/05 00:07:57;;;;;;;1.75;1.65;;;20.60;99.90;;;;;;5072040;28;20549;-79
2021/08/05 00:10:23;;;;;;;3.03;1.77;;;20.60;99.90;;;;;;5071878;28;20028;-79
2021/08/05 00:12:49;;;;;;;1.70;1.60;;;20.50;99.90;;;;;;5072457;28;20028;-79
2021/08/05 00:15:14;;;;;;;1.50;1.35;;;20.50;99.90;;;;;;5079516;28;20073;-79
2021/08/05 00:17:40;;;;;;;1.48;1.38;;;20.40;99.90;;;;;;5073503;28;20373;-79
2021/08/05 00:20:07;;;;;;;1.55;1.40;;;20.40;99.90;;;;;;5072030;28;20044;-79
2021/08/05 00:22:32;;;;;;;1.85;1.75;;;20.40;99.90;;;;;;5079940;28;20025;-79
2021/08/05 00:24:58;;;;;;;1.33;1.23;;;20.40;99.90;;;;;;5080000;28;20024;-79
2021/08/05 00:27:24;;;;;;;1.20;1.10;;;20.40;99.90;;;;;;5076514;28;20091;-79
2021/08/05 00:29:50;;;;;;;0.73;0.70;;;20.40;99.90;;;;;;5075919;28;20029;-79
2021/08/05 00:32:16;;;;;;;1.02;0.73;;;20.40;99.90;;;;;;5080041;28;20028;-79
2021/08/05 00:34:42;;;;;;;0.45;0.45;;;20.40;99.90;;;;;;5079800;28;20032;-79
2021/08/05 00:37:07;;;;;;;0.32;0.32;;;20.40;99.90;;;;;;5076361;28;20047;-79
2021/08/05 00:39:33;;;;;;;0.30;0.30;;;20.40;99.90;;;;;;5078671;28;20029;-79
2021/08/05 00:41:59;;;;;;;0.40;0.40;;;20.40;99.90;;;;;;5075999;28;20044;-79
2021/08/05 00:44:25;;;;;;;1.15;0.70;;;20.40;99.90;;;;;;5077001;28;20028;-79
2021/08/05 00:46:50;;;;;;;0.60;0.60;;;20.40;99.90;;;;;;5076089;28;20028;-79
2021/08/05 00:49:16;;;;;;;1.60;0.50;;;20.40;99.90;;;;;;5075091;28;20020;-79
2021/08/05 00:51:43;;;;;;;0.28;0.28;;;20.40;99.90;;;;;;5076050;28;20024;-79
2021/08/05 00:54:09;;;;;;;0.65;0.65;;;20.40;99.90;;;;;;5052364;28;20021;-79
2021/08/05 00:56:35;;;;;;;0.65;0.65;;;20.30;99.90;;;;;;5076904;28;20078;-79
2021/08/05 00:59:01;;;;;;;1.50;0.80;;;20.30;99.90;;;;;;5078945;28;20387;-79
2021/08/05 01:01:36;;;;;;;0.77;0.73;;;20.20;99.90;;;;;;5051030;28;20029;-78
2021/08/05 01:04:02;;;;;;;0.80;0.80;;;20.20;99.90;;;;;;5075804;28;20031;-78
2021/08/05 01:06:59;;;;;;;0.80;0.80;;;20.10;99.90;;;;;;5064460;28;20045;-79
2021/08/05 01:10:02;;;;;;;0.82;0.82;;;20.00;99.90;;;;;;5056272;28;20060;-79
2021/08/05 01:12:57;;;;;;;0.77;0.70;;;20.00;99.90;;;;;;5049407;28;20060;-79
2021/08/05 01:15:25;;;;;;;0.55;0.55;;;19.90;99.90;;;;;;5071398;28;20043;-78
2021/08/05 01:17:58;;;;;;;1.63;0.88;;;19.90;99.90;;;;;;5075678;28;20098;-79
2021/08/05 01:20:25;;;;;;;1.10;1.00;;;19.90;99.90;;;;;;5071888;28;20061;-78
2021/08/05 01:23:10;;;;;;;0.70;0.70;;;19.90;99.90;;;;;;5075015;28;20021;-78
2021/08/05 01:25:49;;;;;;;0.75;0.75;;;19.80;99.90;;;;;;5079702;28;20031;-78
2021/08/05 01:28:16;;;;;;;0.50;0.50;;;19.90;99.90;;;;;;5057890;28;20085;-78
2021/08/05 01:30:47;;;;;;;0.57;0.57;;;19.80;99.90;;;;;;5057328;28;20025;-79
2021/08/05 01:33:18;;;;;;;0.47;0.43;;;19.80;99.90;;;;;;5072280;28;20020;-79
2021/08/05 01:35:44;;;;;;;0.70;0.70;;;19.80;99.90;;;;;;5056811;28;20274;-79
2021/08/05 01:38:14;;;;;;;0.40;0.40;;;19.80;99.90;;;;;;5075253;28;20100;-78
2021/08/05 01:40:41;;;;;;;1.05;0.95;;;19.80;99.90;;;;;;5051315;28;20383;-78
2021/08/05 01:43:08;;;;;;;0.60;0.60;;;19.80;99.90;;;;;;5075680;28;20376;-78
2021/08/05 01:45:34;;;;;;;2.13;0.63;;;19.80;99.90;;;;;;5074676;28;20072;-78
2021/08/05 01:48:01;;;;;;;0.95;0.80;;;19.60;99.90;;;;;;5083999;28;20091;-78
2021/08/05 01:50:27;;;;;;;0.88;0.88;;;19.70;99.90;;;;;;5074842;28;20055;-79
2021/08/05 01:52:54;;;;;;;0.80;0.80;;;19.70;99.90;;;;;;5074721;28;20056;-78
2021/08/05 01:55:19;;;;;;;0.80;0.80;;;19.50;99.90;;;;;;5082727;28;20032;-78
2021/08/05 01:57:45;;;;;;;0.70;0.70;;;19.40;99.90;;;;;;5075020;28;20392;-79
2021/08/05 02:00:12;;;;;;;0.45;0.45;;;19.60;99.90;;;;;;5074650;28;20032;-78
2021/08/05 02:02:38;;;;;;;0.57;0.57;;;19.70;99.90;;;;;;5074692;28;20066;-79
2021/08/05 02:05:17;;;;;;;0.60;0.60;;;19.70;99.90;;;;;;5077518;28;20054;-78
2021/08/05 02:08:04;;;;;;;0.98;0.68;;;19.70;99.90;;;;;;5078130;28;20025;-79
2021/08/05 02:10:45;;;;;;;0.50;0.50;;;19.70;99.90;;;;;;5076446;28;20016;-79
2021/08/05 02:13:17;;;;;;;0.40;0.40;;;19.70;99.90;;;;;;5083093;28;20029;-79
2021/08/05 02:15:49;;;;;;;0.20;0.20;;;19.70;99.90;;;;;;5081508;28;20492;-79
2021/08/05 02:18:15;;;;;;;0.25;0.25;;;19.70;99.90;;;;;;5064410;28;20106;-78
2021/08/05 02:20:45;;;;;;;0.20;0.20;;;19.80;99.90;;;;;;5056539;28;20086;-79
2021/08/05 02:23:13;;;;;;;0.28;0.28;;;19.80;99.90;;;;;;5074533;28;20027;-79
2021/08/05 02:25:42;;;;;;;0.20;0.20;;;19.80;99.90;;;;;;5063712;28;20024;-78
2021/08/05 02:28:09;;;;;;;0.40;0.40;;;19.80;99.90;;;;;;5073356;28;20037;-78
2021/08/05 02:30:36;;;;;;;0.77;0.35;;;19.70;99.90;;;;;;5074314;28;20065;-78
2021/08/05 02:33:03;;;;;;;1.08;0.40;;;19.70;99.90;;;;;;5071168;28;20025;-78
2021/08/05 02:35:33;;;;;;;0.40;0.40;;;19.70;99.90;;;;;;5074178;28;20013;-79
2021/08/05 02:37:59;;;;;;;0.30;0.30;;;19.70;99.90;;;;;;5073468;28;20039;-79
2021/08/05 02:40:25;;;;;;;0.40;0.28;;;19.80;99.90;;;;;;5054952;28;20024;-78
2021/08/05 02:42:52;;;;;;;0.30;0.30;;;19.80;99.90;;;;;;5081390;28;20099;-79
2021/08/05 02:45:18;;;;;;;0.17;0.17;;;19.70;99.90;;;;;;5055853;28;20414;-79
2021/08/05 02:47:44;;;;;;;0.20;0.20;;;19.70;99.90;;;;;;5071476;28;20060;-79
2021/08/05 02:50:13;;;;;;;0.28;0.10;;;19.70;99.90;;;;;;5055308;28;20021;-79
2021/08/05 02:52:40;;;;;;;0.10;0.10;;;19.70;99.90;;;;;;5081195;28;20021;-79
2021/08/05 02:55:06;;;;;;;0.10;0.10;;;19.70;99.90;;;;;;5070894;28;20365;-79
2021/08/05 02:57:33;;;;;;;0.10;0.10;;;19.70;99.90;;;;;;5072015;28;20103;-78
2021/08/05 02:59:59;;;;;;;2.40;0.20;;;19.80;99.90;;;;;;5067749;28;20028;-79
2021/08/05 03:02:25;;;;;;;0.10;0.10;;;19.80;99.90;;;;;;5080235;28;20032;-79
2021/08/05 03:04:50;;;;;;;3.85;0.20;;;19.80;99.90;;;;;;5082376;28;20044;-79
2021/08/05 03:07:16;;;;;;;0.10;0.10;;;19.80;99.90;;;;;;5079918;28;20027;-79
2021/08/05 03:09:42;;;;;;;0.40;0.10;;;19.80;99.90;;;;;;5063223;28;20023;-78
2021/08/05 03:12:08;;;;;;;0.10;0.10;;;19.70;99.90;;;;;;5071095;28;20076;-78
2021/08/05 03:14:34;;;;;;;0.20;0.20;;;19.60;99.90;;;;;;5072826;28;20147;-78
2021/08/05 03:17:00;;;;;;;0.00;0.00;;;19.50;99.90;;;;;;5084403;28;20036;-78
2021/08/05 03:19:26;;;;;;;0.08;0.08;;;19.50;99.90;;;;;;5082455;28;20020;-78
2021/08/05 03:21:52;;;;;;;0.00;0.00;;;19.40;99.90;;;;;;5044155;28;20039;-78
2021/08/05 03:24:18;;;;;;;0.10;0.10;;;19.40;99.90;;;;;;5035714;28;20021;-78
2021/08/05 03:26:44;;;;;;;0.10;0.10;;;19.50;99.90;;;;;;5057412;28;20032;-79
2021/08/05 03:29:10;;;;;;;0.57;0.20;;;19.40;99.90;;;;;;5042450;28;20085;-78
2021/08/05 03:31:35;;;;;;;0.20;0.10;;;19.40;99.90;;;;;;5073288;28;20094;-79
2021/08/05 03:34:01;;;;;;;0.10;0.10;;;19.40;99.90;;;;;;5072918;28;20028;-78
2021/08/05 03:36:27;;;;;;;0.10;0.10;;;19.30;99.90;;;;;;5055036;28;20038;-79
2021/08/05 03:38:53;;;;;;;0.10;0.10;;;19.30;99.90;;;;;;5073548;28;20033;-79
2021/08/05 03:41:19;;;;;;;0.15;0.15;;;19.30;99.90;;;;;;5073263;28;20029;-78
2021/08/05 03:43:45;;;;;;;0.10;0.10;;;19.30;99.90;;;;;;5063934;28;20027;-79
2021/08/05 03:46:11;;;;;;;0.10;0.10;;;19.20;99.90;;;;;;5062167;28;20028;-78
2021/08/05 03:48:36;;;;;;;0.43;0.10;;;19.20;99.90;;;;;;5073377;28;20020;-78
2021/08/05 03:51:05;;;;;;;0.13;0.10;;;19.10;99.90;;;;;;5073074;28;20391;-78
2021/08/05 03:53:33;;;;;;;2.78;0.30;;;19.10;99.90;;;;;;5072944;28;20119;-78
2021/08/05 03:55:59;;;;;;;1.83;0.10;;;19.10;99.90;;;;;;5072770;28;20036;-78
2021/08/05 03:58:25;;;;;;;1.23;0.25;;;19.20;99.90;;;;;;5073094;28;20024;-78
2021/08/05 04:00:50;;;;;;;0.55;0.20;;;19.00;99.90;;;;;;5072783;28;20035;-78
2021/08/05 04:03:16;;;;;;;0.20;0.20;;;19.00;99.90;;;;;;5072843;28;20025;-78
2021/08/05 04:05:42;;;;;;;0.20;0.17;;;18.90;99.90;;;;;;5072619;28;20412;-78
2021/08/05 04:08:07;;;;;;;0.35;0.28;;;18.90;99.90;;;;;;5073152;28;20144;-78
2021/08/05 04:10:33;;;;;;;0.10;0.10;;;18.90;99.90;;;;;;5071999;28;20052;-78
2021/08/05 04:12:59;;;;;;;0.00;0.00;;;18.90;99.90;;;;;;5069734;28;20032;-79
2021/08/05 04:15:25;;;;;;;0.10;0.10;;;18.80;99.90;;;;;;5052700;28;20017;-78
2021/08/05 04:17:50;;;;;;;1.02;0.10;;;18.70;99.90;;;;;;5053101;28;20025;-78
2021/08/05 04:20:18;;;;;;;0.55;0.10;;;18.70;99.90;;;;;;5052705;28;20052;-78
2021/08/05 04:22:44;;;;;;;0.30;0.10;;;18.70;99.90;;;;;;5052645;28;20489;-78
2021/08/05 04:25:11;;;;;;;4.13;0.20;;;18.70;99.90;;;;;;5034750;28;20071;-78
2021/08/05 04:27:38;;;;;;;0.30;0.20;;;18.70;99.90;;;;;;5052839;28;20514;-78
2021/08/05 04:30:09;;;;;;;0.85;0.17;;;18.70;99.90;;;;;;5071021;28;20078;-78
2021/08/05 04:32:35;;;;;;;0.17;0.10;;;18.60;99.90;;;;;;5057694;28;20033;-79
2021/08/05 04:35:01;;;;;;;1.30;0.17;;;18.70;99.90;;;;;;5053023;28;20029;-79
2021/08/05 04:37:26;;;;;;;0.20;0.20;;;18.60;99.90;;;;;;5035861;28;20489;-79
2021/08/05 04:39:52;;;;;;;0.55;0.20;;;18.50;99.90;;;;;;5053682;28;20025;-78
2021/08/05 04:42:18;;;;;;;0.10;0.10;;;18.60;99.90;;;;;;5046426;28;20377;-78
2021/08/05 04:44:44;;;;;;;0.10;0.10;;;18.60;99.90;;;;;;5057475;28;20082;-79
2021/08/05 04:47:10;;;;;;;1.65;0.10;;;18.60;99.90;;;;;;5052723;28;20481;-78
2021/08/05 04:49:35;;;;;;;0.10;0.10;;;18.70;99.90;;;;;;5066555;28;20090;-78
2021/08/05 04:52:02;;;;;;;0.10;0.10;;;18.70;99.90;;;;;;5044347;28;20096;-78
2021/08/05 04:54:27;;;;;;;0.20;0.20;;;18.70;99.90;;;;;;5034477;28;20028;-78
2021/08/05 04:56:53;;;;;;;4.30;0.10;;;18.80;99.90;;;;;;5052501;28;20392;-78
2021/08/05 04:59:19;;;;;;;0.10;0.10;;;18.80;99.90;;;;;;5053469;28;20162;-78
2021/08/05 05:01:44;;;;;;;1.45;0.17;;;18.80;99.90;;;;;;5057503;28;20039;-78
2021/08/05 05:04:11;;;;;;;0.10;0.10;;;18.80;99.90;;;;;;5072429;28;20489;-78
2021/08/05 05:06:37;;;;;;;0.10;0.10;;;18.90;99.90;;;;;;5063474;28;20372;-78
2021/08/05 05:09:03;;;;;;;1.08;0.10;;;19.00;99.90;;;;;;5043109;28;20383;-78
2021/08/05 05:11:30;;;;;;;0.22;0.20;;;19.10;99.90;;;;;;5066675;28;20036;-79
2021/08/05 05:13:56;;;;;;;0.38;0.10;;;19.10;99.90;;;;;;5034430;28;20025;-78
2021/08/05 05:16:22;;;;;;;1.48;0.10;;;19.30;99.90;;;;;;5068171;28;20082;-78
2021/08/05 05:18:48;;;;;;;0.20;0.20;;;19.30;99.90;;;;;;5064949;28;20025;-78
2021/08/05 05:21:13;;;;;;;0.85;0.10;;;19.40;99.90;;;;;;5072814;28;20033;-78
2021/08/05 05:23:39;;;;;;;0.13;0.13;;;19.50;99.90;;;;;;5069516;28;20021;-79
2021/08/05 05:26:05;;;;;;;0.10;0.10;;;19.50;99.90;;;;;;5055773;28;20112;-79
2021/08/05 05:28:31;;;;;;;0.10;0.10;;;19.50;99.90;;;;;;5040622;28;20074;-78
2021/08/05 05:30:59;;;;;;;0.00;0.00;;;19.60;99.90;;;;;;5047247;28;20496;-78
2021/08/05 05:33:24;;;;;;;0.10;0.10;;;19.60;99.90;;;;;;5037857;28;20029;-79
2021/08/05 05:35:51;;;;;;;0.10;0.05;;;19.60;99.90;;;;;;5055737;28;20036;-78
2021/08/05 05:38:17;;;;;;;0.05;0.05;;;19.60;99.90;;;;;;5069273;28;20029;-79
2021/08/05 05:40:43;;;;;;;2.05;0.10;;;19.60;99.90;;;;;;5056700;28;20028;-79
2021/08/05 05:43:09;;;;;;;0.30;0.30;;;19.70;99.90;;;;;;5063872;28;20041;-79
2021/08/05 05:45:37;;;;;;;0.20;0.20;;;19.80;99.90;;;;;;5074742;28;20052;-79
2021/08/05 05:48:03;;;;;;;0.10;0.10;;;19.80;99.90;;;;;;5074968;28;20016;-79
2021/08/05 05:50:30;;;;;;;1.15;0.20;;;19.90;99.90;;;;;;5075553;28;20017;-78
2021/08/05 05:52:58;;;;;;;0.10;0.10;;;19.90;99.90;;;;;;5074880;28;20016;-79
2021/08/05 05:55:24;;;;;;;0.13;0.10;;;20.00;99.90;;;;;;5074774;28;20027;-79
2021/08/05 05:57:50;;;;;;;0.17;0.10;;;20.00;99.90;;;;;;5083369;28;20020;-79
2021/08/05 06:00:16;;;;;;;0.10;0.10;;;20.10;99.90;;;;;;5074733;28;20369;-78
2021/08/05 06:02:42;;;;;;;0.10;0.10;;;20.20;99.90;;;;;;5075436;28;20535;-78
2021/08/05 06:05:09;;;;;;;0.00;0.00;;;20.20;99.90;;;;;;5083158;28;20136;-78
2021/08/05 06:07:47;;;;;;;0.10;0.10;;;20.20;99.90;;;;;;5081117;28;20036;-78
2021/08/05 06:10:15;;;;;;;0.10;0.10;;;20.30;99.90;;;;;;5082341;28;20109;-79
2021/08/05 06:12:41;;;;;;;0.08;0.08;;;20.30;99.90;;;;;;5078330;28;20392;-79
2021/08/05 06:15:07;;;;;;;0.10;0.10;;;20.30;99.90;;;;;;5077119;28;20067;-79
2021/08/05 06:17:33;;;;;;;0.65;0.10;;;20.40;99.90;;;;;;5074174;28;20029;-79
2021/08/05 06:19:59;;;;;;;1.35;0.17;;;20.40;99.90;;;;;;5062377;28;20082;-79
2021/08/05 06:22:25;;;;;;;0.00;0.00;;;20.50;99.90;;;;;;5084854;28;20084;-78
2021/08/05 06:24:51;;;;;;;0.10;0.10;;;20.60;99.90;;;;;;5066328;28;20036;-78
2021/08/05 06:27:17;;;;;;;0.10;0.10;;;20.60;99.90;;;;;;5083502;28;20036;-78
2021/08/05 06:29:43;;;;;;;0.10;0.10;;;20.60;99.90;;;;;;5089026;28;20017;-78
2021/08/05 06:32:08;;;;;;;0.10;0.10;;;20.60;99.90;;;;;;5073435;28;20028;-78
2021/08/05 06:34:34;;;;;;;0.75;0.10;;;20.70;99.90;;;;;;5074225;28;20074;-79
2021/08/05 06:37:00;;;;;;;0.10;0.10;;;20.70;99.90;;;;;;5081179;28;20032;-79
2021/08/05 06:39:25;;;;;;;0.10;0.10;;;20.70;99.90;;;;;;5080405;28;20515;-79
2021/08/05 06:41:51;;;;;;;0.10;0.10;;;20.70;99.90;;;;;;5075407;28;20529;-78
2021/08/05 06:44:17;;;;;;;0.10;0.10;;;20.80;99.90;;;;;;5083414;28;20016;-78
2021/08/05 06:46:42;;;;;;;0.73;0.15;;;20.80;99.90;;;;;;5075286;28;20441;-79
2021/08/05 06:49:08;;;;;;;0.13;0.13;;;20.90;99.90;;;;;;5074358;28;20021;-79
2021/08/05 06:51:34;;;;;;;0.10;0.10;;;20.90;99.90;;;;;;5051978;28;20627;-79
2021/08/05 06:54:00;;;;;;;0.17;0.17;;;21.00;99.90;;;;;;5076417;28;20066;-77
2021/08/05 06:56:26;;;;;;;0.10;0.10;;;21.00;99.90;;;;;;5070499;28;20048;-77
2021/08/05 06:58:52;;;;;;;0.13;0.13;;;21.10;99.90;;;;;;5071983;28;20076;-77
2021/08/05 07:01:17;;;;;;;0.10;0.10;;;21.10;99.90;;;;;;5079704;28;20078;-77
2021/08/05 07:03:43;;;;;;;0.10;0.10;;;21.10;99.90;;;;;;5065209;28;20047;-77
2021/08/05 07:06:09;;;;;;;0.20;0.20;;;21.20;99.90;;;;;;5070023;28;20072;-77
2021/08/05 07:08:37;;;;;;;0.10;0.10;;;21.20;99.90;;;;;;5052427;28;20383;-77
2021/08/05 07:11:03;;;;;;;0.10;0.10;;;21.30;99.90;;;;;;5068366;28;20411;-77
2021/08/05 07:13:29;;;;;;;0.08;0.08;;;21.30;99.90;;;;;;5065895;28;20029;-77
2021/08/05 07:15:54;;;;;;;0.10;0.10;;;21.30;99.90;;;;;;5061143;28;20059;-77
2021/08/05 07:18:20;;;;;;;3.15;0.20;;;21.40;99.90;;;;;;5071646;28;20028;-77
2021/08/05 07:20:46;;;;;;;0.45;0.10;;;21.40;99.90;;;;;;5067243;28;20032;-77
2021/08/05 07:23:11;;;;;;;0.68;0.10;;;21.50;99.90;;;;;;5075716;28;20020;-77
2021/08/05 07:25:37;;;;;;;0.13;0.13;;;21.60;99.90;;;;;;5067442;28;20096;-77
2021/08/05 07:28:03;;;;;;;0.50;0.17;;;21.70;99.90;;;;;;5076389;28;20098;-77
2021/08/05 07:30:29;;;;;;;0.00;0.00;;;21.70;99.90;;;;;;5053954;28;20028;-77
2021/08/05 07:32:56;;;;;;;0.20;0.13;;;21.80;99.90;;;;;;5054862;28;20020;-77
2021/08/05 07:35:22;;;;;;;0.55;0.20;;;21.80;99.90;;;;;;5076098;28;20024;-77
2021/08/05 07:37:47;;;;;;;0.10;0.10;;;21.80;99.90;;;;;;5069493;28;20031;-77
2021/08/05 07:40:14;;;;;;;0.93;0.20;;;21.80;99.90;;;;;;5057309;28;20115;-78
2021/08/05 07:42:40;;;;;;;0.10;0.10;;;21.90;99.90;;;;;;5066499;28;20043;-78
2021/08/05 07:45:06;;;;;;;0.38;0.08;;;21.90;99.90;;;;;;5066261;28;20479;-78
2021/08/05 07:47:32;;;;;;;0.95;0.22;;;21.90;99.90;;;;;;5080065;28;20025;-79
2021/08/05 07:49:58;;;;;;;0.10;0.10;;;22.00;99.90;;;;;;5086095;28;20027;-79
2021/08/05 07:52:24;;;;;;;1.65;0.10;;;22.00;99.90;;;;;;5072913;28;20050;-78
2021/08/05 07:54:50;;;;;;;0.40;0.40;;;22.00;99.90;;;;;;5070014;28;20211;-78
2021/08/05 07:57:15;;;;;;;0.80;0.05;;;22.10;99.90;;;;;;5067944;28;20598;-78
2021/08/05 07:59:42;;;;;;;0.40;0.10;;;22.00;99.90;;;;;;5072914;28;20105;-78
2021/08/05 08:02:08;;;;;;;0.38;0.20;;;22.10;99.50;;;;;;5084091;28;20036;-78
2021/08/05 08:04:34;;;;;;;0.10;0.10;;;22.20;98.80;;;;;;5056347;28;20021;-78
2021/08/05 08:07:00;;;;;;;0.08;0.08;;;22.30;98.40;;;;;;5070473;28;21059;-79
2021/08/05 08:09:27;;;;;;;0.10;0.10;;;22.30;99.00;;;;;;5070812;28;20020;-78
2021/08/05 08:11:53;;;;;;;0.08;0.08;;;22.30;99.50;;;;;;5072690;28;20410;-78
2021/08/05 08:14:18;;;;;;;0.00;0.00;;;22.40;97.70;;;;;;5069556;28;20468;-78
2021/08/05 08:16:44;;;;;;;0.20;0.10;;;22.40;98.00;;;;;;5066892;28;20029;-78
2021/08/05 08:19:10;;;;;;;0.10;0.10;;;22.40;98.30;;;;;;5066584;28;20036;-78
2021/08/05 08:21:36;;;;;;;0.10;0.10;;;22.50;98.80;;;;;;5072091;28;20104;-78
2021/08/05 08:24:02;;;;;;;1.17;0.10;;;22.50;98.60;;;;;;5054453;28;20124;-78
2021/08/05 08:26:28;;;;;;;0.13;0.10;;;22.50;96.50;;;;;;5072073;28;20391;-78
2021/08/05 08:28:53;;;;;;;0.10;0.10;;;22.60;96.30;;;;;;5058794;28;20032;-78
2021/08/05 08:31:19;;;;;;;0.10;0.10;;;22.60;97.00;;;;;;5071230;28;20078;-78
2021/08/05 08:33:45;;;;;;;0.10;0.10;;;22.70;95.30;;;;;;5062109;28;20460;-77
2021/08/05 08:36:11;;;;;;;0.10;0.10;;;22.70;95.00;;;;;;5050176;28;20082;-76
2021/08/05 08:38:36;;;;;;;0.55;0.10;;;22.80;96.20;;;;;;5052958;28;20513;-78
2021/08/05 08:41:02;;;;;;;0.03;0.03;;;22.80;95.50;;;;;;5068427;28;20106;-78
2021/08/05 08:43:29;;;;;;;0.10;0.10;;;22.90;95.60;;;;;;5075346;28;20024;-79
2021/08/05 08:45:56;;;;;;;0.10;0.10;;;23.00;94.40;;;;;;5089415;28;20080;-79
2021/08/05 08:48:27;;;;;;;0.82;0.10;;;23.00;93.70;;;;;;5063040;28;20025;-78
2021/08/05 08:50:54;;;;;;;0.73;0.20;;;23.10;94.90;;;;;;5058937;28;20484;-79
2021/08/05 08:53:26;;;;;;;0.10;0.10;;;23.10;96.30;;;;;;5045696;28;20029;-78
2021/08/05 08:55:55;;;;;;;1.17;0.10;;;23.10;95.10;;;;;;5070334;28;20028;-79
2021/08/05 08:58:22;;;;;;;0.10;0.00;;;23.10;94.90;;;;;;5073587;28;20020;-78
2021/08/05 09:00:48;;;;;;;0.10;0.10;;;23.00;94.30;;;;;;5072869;28;20460;-78
2021/08/05 09:03:14;;;;;;;0.30;0.00;;;23.00;94.90;;;;;;5073407;28;20047;-79
2021/08/05 09:05:40;;;;;;;1.20;0.10;;;23.00;95.00;;;;;;5051675;28;20045;-77
2021/08/05 09:08:06;;;;;;;0.00;0.00;;;23.00;93.30;;;;;;5036739;28;20026;-78
2021/08/05 09:10:33;;;;;;;0.10;0.10;;;23.10;94.50;;;;;;5023990;28;20866;-78
2021/08/05 09:13:01;;;;;;;0.22;0.10;;;23.10;94.80;;;;;;5029970;28;20557;-77
2021/08/05 09:15:40;;;;;;;0.10;0.10;;;23.10;94.80;;;;;;5034584;28;20059;-77
2021/08/05 09:18:28;;;;;;;0.00;0.00;;;23.10;94.50;;;;;;5036878;28;20024;-78
2021/08/05 09:21:14;;;;;;;0.10;0.10;;;23.20;94.60;;;;;;5051623;28;20060;-79
2021/08/05 09:24:03;;;;;;;3.10;0.38;;;23.20;94.70;;;;;;5032688;28;20025;-79
2021/08/05 09:26:37;;;;;;;0.10;0.10;;;23.30;93.50;;;;;;5030797;28;20022;-79
2021/08/05 09:29:03;;;;;;;0.30;0.17;;;23.40;95.00;;;;;;5033444;28;20045;-79
2021/08/05 09:31:29;;;;;;;0.50;0.50;;;23.50;92.70;;;;;;5032944;28;20449;-79
2021/08/05 09:34:15;;;;;;;2.30;0.70;;;23.60;94.00;;;;;;5032928;28;20500;-79
2021/08/05 09:36:43;;;;;;;0.25;0.20;;;23.50;93.90;;;;;;5026975;28;20025;-77
2021/08/05 09:39:26;;;;;;;3.70;0.10;;;23.60;93.60;;;;;;5021988;28;20065;-78
2021/08/05 09:41:59;;;;;;;0.10;0.10;;;23.80;92.40;;;;;;5017070;28;20374;-78
2021/08/05 09:44:46;;;;;;;0.08;0.08;;;23.80;93.40;;;;;;5017726;28;20041;-78
2021/08/05 09:47:13;;;;;;;2.00;0.10;;;23.80;92.80;;;;;;5010504;28;20034;-77
2021/08/05 09:49:46;;;;;;;0.77;0.10;;;23.90;92.60;;;;;;5018551;28;20059;-77
2021/08/05 09:52:13;;;;;;;0.77;0.10;;;23.90;92.50;;;;;;5032031;28;20029;-77
2021/08/05 09:54:40;;;;;;;0.13;0.10;;;23.90;92.00;;;;;;5030085;28;20380;-78
2021/08/05 09:57:07;;;;;;;0.10;0.10;;;24.00;91.80;;;;;;5032165;28;20032;-77
2021/08/05 09:59:33;;;;;;;4.65;0.20;;;24.10;92.20;;;;;;5032308;28;20032;-78
2021/08/05 10:01:59;;;;;;;0.47;0.10;;;24.10;92.50;;;;;;5031707;28;20096;-78
2021/08/05 10:04:29;;;;;;;1.65;0.03;;;24.10;91.60;;;;;;5032500;28;20402;-77
2021/08/05 10:07:06;;;;;;;0.10;0.10;;;24.10;91.90;;;;;;5036306;28;20131;-77
2021/08/05 10:09:34;;;;;;;0.20;0.10;;;24.10;92.80;;;;;;5049040;28;20517;-78
2021/08/05 10:12:14;;;;;;;0.20;0.20;;;24.10;93.40;;;;;;5051486;28;20021;-78
2021/08/05 10:14:41;;;;;;;0.10;0.10;;;24.20;93.20;;;;;;5034794;28;20030;-77
2021/08/05 10:17:07;;;;;;;1.75;0.17;;;24.20;93.50;;;;;;5031573;28;20018;-77
2021/08/05 10:19:42;;;;;;;0.20;0.17;;;24.30;93.90;;;;;;5035540;28;20029;-78
2021/08/05 10:22:10;;;;;;;0.10;0.10;;;24.50;92.50;;;;;;5028037;28;20049;-77
2021/08/05 10:24:38;;;;;;;0.10;0.10;;;24.50;92.80;;;;;;5011594;28;20021;-78
2021/08/05 10:27:07;;;;;;;0.10;0.10;;;24.60;92.80;;;;;;5010683;28;20018;-77
2021/08/05 10:29:34;;;;;;;0.10;0.10;;;24.70;92.10;;;;;;5011915;28;20037;-78
2021/08/05 10:32:02;;;;;;;0.10;0.10;;;24.80;93.00;;;;;;5011168;28;20049;-77
2021/08/05 10:34:28;;;;;;;0.10;0.10;;;24.80;91.70;;;;;;5011698;28;20033;-78
2021/08/05 10:36:54;;;;;;;0.10;0.10;;;24.90;91.40;;;;;;5011387;28;20030;-77
2021/08/05 10:39:20;;;;;;;0.10;0.10;;;25.00;90.70;;;;;;5011633;28;20030;-78
2021/08/05 10:41:46;;;;;;;0.85;0.20;;;25.00;89.10;;;;;;5012424;28;20057;-78
2021/08/05 10:44:13;;;;;;;0.05;0.00;;;25.20;90.00;;;;;;5037880;28;20021;-78
2021/08/05 10:46:41;;;;;;;0.10;0.10;;;25.30;89.20;;;;;;5051402;28;20384;-78
2021/08/05 10:49:07;;;;;;;0.52;0.30;;;25.40;90.50;;;;;;5048964;28;20954;-78
2021/08/05 10:51:41;;;;;;;0.15;0.15;;;25.50;92.70;;;;;;5030218;28;20052;-78
2021/08/05 10:54:07;;;;;;;0.43;0.38;;;25.60;93.50;;;;;;5028247;28;20030;-78
2021/08/05 10:56:33;;;;;;;0.45;0.32;;;25.60;93.80;;;;;;5031760;28;20037;-78
2021/08/05 10:59:07;;;;;;;1.17;0.40;;;25.60;93.60;;;;;;5031473;28;20030;-78
2021/08/05 11:01:54;;;;;;;0.77;0.30;;;25.70;94.30;;;;;;5031447;28;20025;-77
2021/08/05 11:04:32;;;;;;;0.38;0.20;;;25.80;93.30;;;;;;5032111;28;20108;-77
2021/08/05 11:07:22;;;;;;;0.57;0.40;;;25.80;93.00;;;;;;5031765;28;20030;-77
2021/08/05 11:09:50;;;;;;;0.40;0.40;;;25.80;94.20;;;;;;5031092;28;20034;-78
2021/08/05 11:12:41;;;;;;;0.10;0.10;;;25.80;97.20;;;;;;5031546;28;20087;-77
2021/08/05 11:15:22;;;;;;;1.25;0.30;;;25.90;92.90;;;;;;5028994;28;20033;-77
2021/08/05 11:18:09;;;;;;;0.22;0.22;;;25.90;93.00;;;;;;5030922;28;20029;-77
2021/08/05 11:20:35;;;;;;;0.10;0.10;;;26.10;96.10;;;;;;5035484;28;20147;-77
2021/08/05 11:23:01;;;;;;;0.10;0.10;;;26.10;92.00;;;;;;5024343;28;20064;-77
2021/08/05 11:25:50;;;;;;;1.05;0.13;;;26.20;92.70;;;;;;5019478;28;20053;-77
2021/08/05 11:28:27;;;;;;;2.63;0.25;;;26.30;91.90;;;;;;5020873;28;20489;-77
2021/08/05 11:30:58;;;;;;;0.10;0.10;;;26.20;91.20;;;;;;5024916;28;20353;-77
2021/08/05 11:33:47;;;;;;;0.35;0.20;;;26.20;90.90;;;;;;5022406;28;20017;-74
2021/08/05 11:36:36;;;;;;;0.30;0.15;;;26.00;91.70;;;;;;5013898;28;20045;-76
2021/08/05 11:39:09;;;;;;;0.38;0.20;;;26.10;92.20;;;;;;5026001;28;20617;-77
2021/08/05 11:41:53;;;;;;;1.63;0.20;;;26.10;92.60;;;;;;5022961;28;20026;-77
2021/08/05 11:44:48;;;;;;;0.10;0.10;;;26.20;93.00;;;;;;5024473;28;20078;-77
2021/08/05 11:47:36;;;;;;;0.17;0.10;;;26.30;93.90;;;;;;5046462;28;20028;-77
2021/08/05 11:50:02;;;;;;;0.30;0.30;;;26.40;92.50;;;;;;5020220;28;20473;-77
2021/08/05 11:52:28;;;;;;;0.25;0.25;;;26.50;91.90;;;;;;5021505;28;20029;-77
2021/08/05 11:55:02;;;;;;;0.88;0.17;;;26.50;90.70;;;;;;5033949;28;20029;-76
2021/08/05 11:57:37;;;;;;;0.13;0.13;;;26.60;91.00;;;;;;5045687;28;20032;-77
2021/08/05 12:00:06;;;;;;;0.77;0.30;;;26.70;91.50;;;;;;5029424;28;20025;-76
2021/08/05 12:02:32;;;;;;;0.30;0.30;;;26.80;92.10;;;;;;5044061;28;20029;-77
2021/08/05 12:04:58;;;;;;;0.50;0.20;;;26.80;91.80;;;;;;5058350;28;20036;-77
2021/08/05 12:07:27;;;;;;;0.40;0.20;;;27.00;92.20;;;;;;5089818;28;20477;-77
2021/08/05 12:10:04;;;;;;;1.10;0.47;;;26.90;91.30;;;;;;5061683;28;20479;-77
2021/08/05 12:12:36;;;;;;;1.67;0.40;;;26.90;91.80;;;;;;5074529;28;20028;-77
2021/08/05 12:15:03;;;;;;;0.40;0.25;;;27.00;91.00;;;;;;5081259;28;20074;-77
2021/08/05 12:17:29;;;;;;;0.20;0.20;;;27.10;91.10;;;;;;5069690;28;20028;-77
2021/08/05 12:19:55;;;;;;;0.38;0.28;;;27.20;91.70;;;;;;5064782;28;20490;-77
2021/08/05 12:22:32;;;;;;;0.32;0.32;;;27.20;91.20;;;;;;5068510;28;20020;-77
2021/08/05 12:25:02;;;;;;;0.30;0.30;;;27.10;91.40;;;;;;5065532;28;20036;-77
2021/08/05 12:27:29;;;;;;;0.73;0.30;;;27.20;91.80;;;;;;5063562;28;20096;-77
2021/08/05 12:30:09;;;;;;;0.30;0.30;;;27.20;91.20;;;;;;5051499;28;20524;-77
2021/08/05 12:32:55;;;;;;;0.90;0.25;;;27.10;91.50;;;;;;5041045;28;20032;-76
2021/08/05 12:35:20;;;;;;;0.40;0.30;;;27.20;91.50;;;;;;5069065;28;20115;-76
2021/08/05 12:38:04;;;;;;;2.33;0.40;;;27.30;90.70;;;;;;5051239;28;20601;-77
2021/08/05 12:40:30;;;;;;;0.30;0.30;;;27.30;90.00;;;;;;5067375;28;20032;-76
2021/08/05 12:42:57;;;;;;;0.70;0.40;;;27.30;90.60;;;;;;5034124;28;20135;-76
2021/08/05 12:45:25;;;;;;;0.95;0.47;;;27.30;91.00;;;;;;5055048;28;20017;-77
2021/08/05 12:47:51;;;;;;;0.30;0.30;;;27.40;90.80;;;;;;5061901;28;20024;-77
2021/08/05 12:50:17;;;;;;;1.05;0.30;;;27.30;90.30;;;;;;5070010;28;20429;-77
2021/08/05 12:52:43;;;;;;;5.65;0.55;;;27.50;90.20;;;;;;5069457;28;20036;-77
2021/08/05 12:55:09;;;;;;;0.40;0.40;;;27.50;90.00;;;;;;5068973;28;20024;-77